createdAt,value
2019-06-26T00:02:28.838Z,76.30
2019-06-26T00:04:59.339Z,76.30
2019-06-26T00:07:29.891Z,76.40
2019-06-26T00:10:00.328Z,76.60
2019-06-26T00:12:30.742Z,76.60
2019-06-26T00:15:01.107Z,76.80
2019-06-26T00:17:31.496Z,77.00
2019-06-26T00:20:01.920Z,77.10
2019-06-26T00:22:32.723Z,77.10
2019-06-26T00:25:03.134Z,77.10
2019-06-26T00:27:33.518Z,77.30
2019-06-26T00:30:04.399Z,77.40
2019-06-26T00:32:34.813Z,77.40
2019-06-26T00:35:06.153Z,77.60
2019-06-26T00:37:36.557Z,77.70
2019-06-26T00:40:08.257Z,77.80
2019-06-26T00:42:38.663Z,77.80
2019-06-26T00:45:09.567Z,78.00
2019-06-26T00:47:39.958Z,78.10
2019-06-26T00:50:11.274Z,78.10
2019-06-26T00:52:41.734Z,78.10
2019-06-26T00:55:13.261Z,78.40
2019-06-26T00:57:43.681Z,78.30
2019-06-26T01:00:15.998Z,78.30
2019-06-26T01:02:46.413Z,78.30
2019-06-26T01:05:16.907Z,78.40
2019-06-26T01:07:47.265Z,78.50
2019-06-26T01:10:18.514Z,78.40
2019-06-26T01:12:48.899Z,78.50
2019-06-26T01:15:19.321Z,78.50
2019-06-26T01:17:49.663Z,78.60
2019-06-26T01:20:20.120Z,78.70
2019-06-26T01:22:50.448Z,78.90
2019-06-26T01:25:20.880Z,79.00
2019-06-26T01:27:51.260Z,78.90
2019-06-26T01:30:22.483Z,78.90
2019-06-26T01:32:52.847Z,79.00
2019-06-26T01:35:23.286Z,79.00
2019-06-26T01:37:53.790Z,79.00
2019-06-26T01:40:25.358Z,79.10
2019-06-26T01:42:55.797Z,79.10
2019-06-26T01:45:26.210Z,79.10
2019-06-26T01:47:56.610Z,79.10
2019-06-26T01:50:27.016Z,79.10
2019-06-26T01:52:57.392Z,79.20
2019-06-26T01:55:27.880Z,79.10
2019-06-26T01:57:58.271Z,79.20
2019-06-26T02:00:28.708Z,80.10
2019-06-26T02:02:59.062Z,79.40
2019-06-26T02:05:29.461Z,79.40
2019-06-26T02:07:59.881Z,79.50
2019-06-26T02:10:30.296Z,79.50
2019-06-26T02:13:00.690Z,79.60
2019-06-26T02:15:31.082Z,79.60
2019-06-26T02:18:01.476Z,79.60
2019-06-26T02:20:31.874Z,79.60
2019-06-26T02:23:02.255Z,79.70
2019-06-26T02:25:32.661Z,79.70
2019-06-26T02:28:03.237Z,79.90
2019-06-26T02:30:33.812Z,79.90
2019-06-26T02:33:04.210Z,79.80
2019-06-26T02:35:34.640Z,79.90
2019-06-26T02:38:05.084Z,80.00
2019-06-26T02:40:35.475Z,80.00
2019-06-26T02:43:07.214Z,80.20
2019-06-26T02:45:38.275Z,80.30
2019-06-26T02:48:08.667Z,80.30
2019-06-26T02:50:39.059Z,80.40
2019-06-26T02:53:09.467Z,80.50
2019-06-26T02:55:39.795Z,80.30
2019-06-26T02:58:10.190Z,80.40
2019-06-26T03:00:40.620Z,80.50
2019-06-26T03:03:10.979Z,80.50
2019-06-26T03:05:41.378Z,80.40
2019-06-26T03:08:11.768Z,80.40
2019-06-26T03:10:42.156Z,80.40
2019-06-26T03:13:12.577Z,80.30
2019-06-26T03:15:42.943Z,80.30
2019-06-26T03:18:13.436Z,80.40
2019-06-26T03:20:48.981Z,80.40
2019-06-26T03:23:19.425Z,80.40
2019-06-26T03:25:49.847Z,80.50
2019-06-26T03:28:20.284Z,80.60
2019-06-26T03:30:50.780Z,80.70
2019-06-26T03:33:21.515Z,80.70
2019-06-26T03:35:52.011Z,80.70
2019-06-26T03:38:22.452Z,80.70
2019-06-26T03:40:52.889Z,80.90
2019-06-26T03:43:23.283Z,81.00
2019-06-26T03:45:53.692Z,81.00
2019-06-26T03:48:24.095Z,80.90
2019-06-26T03:50:54.471Z,81.10
2019-06-26T03:53:24.863Z,81.20
2019-06-26T03:55:55.242Z,81.10
2019-06-26T03:58:25.712Z,81.10
2019-06-26T04:00:56.166Z,81.10
2019-06-26T04:03:26.636Z,81.10
2019-06-26T04:05:57.001Z,81.20
2019-06-26T04:08:27.418Z,81.20
2019-06-26T04:10:57.814Z,81.20
2019-06-26T04:13:28.251Z,81.30
2019-06-26T04:15:58.664Z,81.30
2019-06-26T04:18:29.090Z,81.30
2019-06-26T04:20:59.497Z,81.40
2019-06-26T04:23:29.893Z,81.50
2019-06-26T04:26:00.301Z,81.50
2019-06-26T04:28:30.717Z,81.60
2019-06-26T04:31:01.148Z,81.80
2019-06-26T04:33:31.544Z,81.80
2019-06-26T04:36:02.174Z,81.90
2019-06-26T04:38:32.570Z,81.90
2019-06-26T04:41:02.995Z,83.00
2019-06-26T04:43:33.425Z,82.10
2019-06-26T04:46:03.845Z,82.10
2019-06-26T04:48:34.213Z,82.10
2019-06-26T04:51:04.666Z,82.10
2019-06-26T04:53:35.034Z,82.30
2019-06-26T04:56:05.463Z,82.50
2019-06-26T04:58:35.855Z,82.50
2019-06-26T05:01:06.302Z,82.50
2019-06-26T05:03:36.686Z,82.70
2019-06-26T05:06:07.158Z,82.80
2019-06-26T05:08:37.612Z,83.00
2019-06-26T05:11:08.026Z,83.10
2019-06-26T05:13:38.439Z,83.40
2019-06-26T05:16:14.780Z,83.40
2019-06-26T05:18:40.966Z,83.60
2019-06-26T05:21:11.454Z,83.70
2019-06-26T05:23:41.832Z,83.90
2019-06-26T05:26:12.396Z,84.10
2019-06-26T05:28:42.778Z,84.30
2019-06-26T05:31:13.186Z,84.40
2019-06-26T05:33:43.642Z,84.50
2019-06-26T05:36:14.041Z,84.60
2019-06-26T05:38:44.561Z,84.70
2019-06-26T05:41:15.024Z,85.50
2019-06-26T05:43:45.450Z,84.50
2019-06-26T05:46:29.967Z,84.30
2019-06-26T05:48:48.015Z,84.10
2019-06-26T05:51:18.440Z,84.00
2019-06-26T05:53:48.844Z,83.60
2019-06-26T05:56:19.225Z,83.50
2019-06-26T05:58:49.650Z,83.00
2019-06-26T06:01:20.053Z,82.70
2019-06-26T06:03:50.474Z,82.30
2019-06-26T06:06:22.975Z,82.00
2019-06-26T06:08:53.368Z,82.00
2019-06-26T06:11:23.785Z,81.60
2019-06-26T06:13:54.213Z,81.30
2019-06-26T06:16:24.618Z,81.20
2019-06-26T06:18:55.333Z,81.00
2019-06-26T06:21:27.779Z,80.90
2019-06-26T06:23:58.428Z,80.80
2019-06-26T06:26:28.809Z,80.40
2019-06-26T06:28:59.225Z,79.70
2019-06-26T06:31:29.634Z,79.00
2019-06-26T06:34:00.045Z,78.20
2019-06-26T06:36:30.417Z,77.50
2019-06-26T06:39:00.856Z,76.80
2019-06-26T06:41:31.254Z,76.20
2019-06-26T06:44:01.670Z,75.60
2019-06-26T06:46:32.064Z,75.20
2019-06-26T06:49:02.497Z,74.80
2019-06-26T06:51:32.915Z,74.50
2019-06-26T06:54:03.426Z,74.00
2019-06-26T06:56:33.851Z,73.70
2019-06-26T06:59:04.305Z,73.50
2019-06-26T07:01:34.702Z,73.30
2019-06-26T07:04:05.168Z,72.90
2019-06-26T07:06:35.584Z,72.50
2019-06-26T07:09:07.851Z,72.20
2019-06-26T07:11:38.235Z,71.80
2019-06-26T07:14:08.631Z,72.10
2019-06-26T07:16:39.057Z,70.90
2019-06-26T07:19:09.493Z,70.30
2019-06-26T07:21:39.922Z,69.80
2019-06-26T07:24:10.368Z,69.40
2019-06-26T07:26:40.811Z,69.00
2019-06-26T07:29:11.174Z,68.80
2019-06-26T07:31:41.654Z,68.80
2019-06-26T07:34:12.110Z,68.80
2019-06-26T07:36:42.520Z,69.00
2019-06-26T07:39:13.421Z,68.70
2019-06-26T07:41:43.862Z,68.50
2019-06-26T07:44:14.331Z,68.40
2019-06-26T07:46:44.742Z,68.40
2019-06-26T07:49:15.143Z,68.40
2019-06-26T07:51:45.541Z,68.10
2019-06-26T07:54:16.329Z,68.10
2019-06-26T07:56:46.778Z,67.80
2019-06-26T07:59:17.158Z,67.70
2019-06-26T08:01:47.553Z,67.60
2019-06-26T08:04:17.987Z,67.30
2019-06-26T08:06:48.370Z,66.90
2019-06-26T08:09:18.775Z,66.50
2019-06-26T08:11:49.342Z,66.20
2019-06-26T08:14:19.782Z,66.00
2019-06-26T08:16:50.182Z,65.70
2019-06-26T08:19:20.613Z,65.30
2019-06-26T08:21:51.000Z,65.00
2019-06-26T08:24:21.427Z,64.90
2019-06-26T08:26:51.847Z,64.90
2019-06-26T08:29:22.213Z,64.40
2019-06-26T08:31:52.619Z,63.80
2019-06-26T08:34:23.037Z,63.00
2019-06-26T08:36:53.465Z,62.40
2019-06-26T08:39:23.867Z,61.80
2019-06-26T08:41:54.258Z,61.40
2019-06-26T08:44:24.654Z,61.00
2019-06-26T08:46:55.162Z,60.80
2019-06-26T08:49:26.669Z,60.30
2019-06-26T08:51:58.399Z,59.80
2019-06-26T08:54:28.870Z,59.30
2019-06-26T08:56:59.269Z,58.80
2019-06-26T08:59:29.723Z,58.20
2019-06-26T09:02:00.279Z,57.90
2019-06-26T09:04:31.277Z,57.60
2019-06-26T09:07:02.899Z,57.40
2019-06-26T09:09:33.352Z,57.10
2019-06-26T09:12:03.847Z,56.90
2019-06-26T09:14:34.276Z,56.50
2019-06-26T09:17:04.668Z,56.00
2019-06-26T09:19:35.121Z,55.60
2019-06-26T09:22:07.228Z,55.20
2019-06-26T09:24:37.673Z,54.90
2019-06-26T09:27:08.106Z,54.60
2019-06-26T09:29:38.532Z,54.30
2019-06-26T09:32:08.960Z,54.10
2019-06-26T09:34:39.490Z,53.90
2019-06-26T09:37:09.966Z,53.80
2019-06-26T09:39:40.471Z,53.90
2019-06-26T09:42:10.876Z,54.10
2019-06-26T09:44:41.315Z,54.30
2019-06-26T09:47:15.475Z,54.30
2019-06-26T09:49:43.830Z,54.00
2019-06-26T09:52:14.362Z,53.50
2019-06-26T09:54:44.774Z,53.20
2019-06-26T09:57:15.231Z,52.80
2019-06-26T09:59:45.656Z,52.60
2019-06-26T10:02:16.064Z,52.60
2019-06-26T10:04:46.484Z,52.30
2019-06-26T10:07:16.937Z,51.90
2019-06-26T10:09:47.337Z,51.70
2019-06-26T10:12:17.751Z,51.50
2019-06-26T10:14:48.317Z,50.90
2019-06-26T10:17:18.721Z,50.30
2019-06-26T10:19:49.121Z,49.80
2019-06-26T10:22:19.518Z,49.10
2019-06-26T10:24:50.016Z,48.30
2019-06-26T10:27:20.375Z,47.50
2019-06-26T10:29:50.815Z,46.80
2019-06-26T10:32:21.260Z,46.40
2019-06-26T10:34:51.705Z,45.90
2019-06-26T10:37:22.079Z,45.40
2019-06-26T10:39:52.501Z,45.00
2019-06-26T10:42:22.887Z,44.70
2019-06-26T10:44:53.279Z,44.00
2019-06-26T10:47:23.726Z,43.10
2019-06-26T10:49:54.175Z,43.40
2019-06-26T10:52:24.558Z,42.90
2019-06-26T10:54:55.004Z,43.00
2019-06-26T10:57:25.411Z,43.00
2019-06-26T10:59:56.179Z,42.80
2019-06-26T11:02:26.767Z,42.30
2019-06-26T11:04:57.211Z,42.10
2019-06-26T11:07:27.615Z,41.70
2019-06-26T11:09:58.167Z,41.80
2019-06-26T11:12:28.587Z,41.70
2019-06-26T11:14:59.449Z,41.40
2019-06-26T11:17:29.866Z,40.40
2019-06-26T11:20:00.541Z,39.50
2019-06-26T11:22:30.979Z,38.80
2019-06-26T11:25:01.431Z,38.50
2019-06-26T11:27:33.739Z,38.00
2019-06-26T11:30:05.401Z,37.10
2019-06-26T11:32:35.783Z,36.60
2019-06-26T11:35:06.966Z,36.00
2019-06-26T11:37:37.550Z,35.30
2019-06-26T11:40:10.261Z,35.10
2019-06-26T11:42:40.683Z,35.00
2019-06-26T11:45:13.987Z,35.00
2019-06-26T11:47:45.930Z,34.90
2019-06-26T11:50:17.405Z,34.80
2019-06-26T11:52:47.767Z,34.70
2019-06-26T11:55:19.895Z,34.60
2019-06-26T11:57:50.418Z,34.30
2019-06-26T12:00:24.036Z,34.10
2019-06-26T12:02:54.447Z,33.90
2019-06-26T12:05:24.899Z,33.60
2019-06-26T12:07:55.364Z,33.20
2019-06-26T12:10:25.809Z,33.00
2019-06-26T12:12:56.239Z,33.00
2019-06-26T12:15:26.841Z,32.90
2019-06-26T12:17:57.220Z,32.80
2019-06-26T12:20:27.651Z,32.40
2019-06-26T12:22:58.073Z,31.90
2019-06-26T12:25:28.507Z,31.60
2019-06-26T12:27:58.916Z,31.50
2019-06-26T12:30:30.460Z,31.50
2019-06-26T12:33:03.482Z,31.00
2019-06-26T12:35:33.152Z,30.30
2019-06-26T12:38:03.663Z,29.00
2019-06-26T12:40:34.114Z,27.80
2019-06-26T12:43:04.539Z,26.70
2019-06-26T12:45:34.967Z,26.50
2019-06-26T12:48:05.622Z,27.40
2019-06-26T12:50:36.327Z,26.70
2019-06-26T12:53:06.927Z,26.60
2019-06-26T12:55:37.441Z,26.70
2019-06-26T12:58:14.797Z,26.30
2019-06-26T13:00:40.059Z,25.90
2019-06-26T13:03:10.443Z,25.90
2019-06-26T13:05:40.931Z,26.00
2019-06-26T13:08:11.441Z,26.20
2019-06-26T13:10:49.640Z,26.60
2019-06-26T13:13:14.764Z,26.60
2019-06-26T13:15:45.248Z,26.80
2019-06-26T13:18:15.737Z,27.20
2019-06-26T13:20:52.790Z,27.70
2019-06-26T13:23:19.311Z,27.90
2019-06-26T13:25:49.690Z,27.90
2019-06-26T13:28:20.124Z,28.00
2019-06-26T13:30:53.229Z,28.10
2019-06-26T13:33:22.700Z,27.90
2019-06-26T13:35:53.119Z,28.00
2019-06-26T13:38:26.978Z,28.30
2019-06-26T13:40:55.679Z,28.10
2019-06-26T13:43:26.102Z,28.10
2019-06-26T13:45:58.717Z,28.10
2019-06-26T13:48:28.647Z,28.30
2019-06-26T13:51:08.935Z,28.60
2019-06-26T13:53:31.244Z,28.60
2019-06-26T13:56:01.750Z,28.80
2019-06-26T13:58:32.154Z,28.60
2019-06-26T14:01:02.614Z,28.60
2019-06-26T14:03:33.020Z,28.70
2019-06-26T14:06:03.469Z,28.60
2019-06-26T14:08:33.835Z,28.30
2019-06-26T14:11:07.288Z,28.10
2019-06-26T14:13:36.353Z,28.00
2019-06-26T14:16:06.775Z,28.20
2019-06-26T14:18:37.177Z,28.30
2019-06-26T14:21:07.581Z,28.00
2019-06-26T14:23:38.131Z,27.90
2019-06-26T14:26:08.523Z,28.10
2019-06-26T14:28:39.073Z,27.80
2019-06-26T14:31:09.472Z,27.80
2019-06-26T14:33:39.867Z,27.50
2019-06-26T14:36:10.215Z,27.30
2019-06-26T14:38:40.625Z,27.70
2019-06-26T14:41:11.065Z,27.90
2019-06-26T14:43:41.494Z,27.90
2019-06-26T14:46:11.874Z,27.90
2019-06-26T14:48:42.281Z,27.70
2019-06-26T14:51:12.670Z,27.50
2019-06-26T14:53:43.112Z,27.40
2019-06-26T14:56:13.607Z,27.10
2019-06-26T14:58:44.078Z,27.10
2019-06-26T15:01:14.512Z,27.40
2019-06-26T15:03:44.941Z,26.70
2019-06-26T15:06:16.885Z,26.30
2019-06-26T15:08:47.485Z,25.50
2019-06-26T15:11:17.915Z,24.90
2019-06-26T15:13:48.400Z,24.50
2019-06-26T15:16:18.811Z,24.10
2019-06-26T15:18:49.273Z,23.80
2019-06-26T15:21:19.658Z,23.30
2019-06-26T15:23:50.105Z,22.50
2019-06-26T15:26:20.495Z,22.00
2019-06-26T15:28:50.914Z,21.70
2019-06-26T15:31:21.443Z,21.60
2019-06-26T15:33:51.948Z,21.50
2019-06-26T15:36:22.325Z,21.20
2019-06-26T15:38:52.725Z,20.90
2019-06-26T15:41:23.151Z,20.70
2019-06-26T15:43:53.619Z,20.60
2019-06-26T15:46:24.044Z,20.60
2019-06-26T15:48:54.452Z,20.60
2019-06-26T15:51:24.900Z,20.70
2019-06-26T15:53:55.292Z,20.60
2019-06-26T15:56:25.724Z,20.50
2019-06-26T15:58:56.121Z,20.20
2019-06-26T16:01:26.572Z,19.80
2019-06-26T16:03:56.997Z,19.60
2019-06-26T16:06:27.464Z,19.50
2019-06-26T16:08:57.871Z,19.50
2019-06-26T16:11:28.327Z,19.70
2019-06-26T16:13:59.596Z,19.90
2019-06-26T16:16:31.106Z,19.70
2019-06-26T16:19:06.390Z,19.40
2019-06-26T16:21:36.831Z,19.40
2019-06-26T16:24:07.288Z,19.40
2019-06-26T16:26:37.686Z,19.60
2019-06-26T16:29:08.098Z,20.10
2019-06-26T16:31:38.519Z,20.20
2019-06-26T16:34:08.956Z,20.10
2019-06-26T16:36:39.488Z,20.30
2019-06-26T16:39:10.420Z,20.90
2019-06-26T16:41:40.888Z,20.60
2019-06-26T16:44:11.314Z,21.20
2019-06-26T16:46:41.766Z,21.80
2019-06-26T16:49:12.178Z,21.10
2019-06-26T16:51:42.598Z,21.70
2019-06-26T16:54:13.000Z,22.30
2019-06-26T16:56:43.396Z,22.60
2019-06-26T16:59:13.814Z,22.70
2019-06-26T17:01:44.260Z,22.90
2019-06-26T17:04:14.663Z,23.30
2019-06-26T17:06:45.134Z,23.80
2019-06-26T17:09:15.586Z,23.90
2019-06-26T17:11:46.049Z,23.90
2019-06-26T17:14:16.966Z,24.10
2019-06-26T17:16:47.520Z,24.60
2019-06-26T17:19:18.163Z,24.90
2019-06-26T17:21:49.186Z,25.10
2019-06-26T17:24:19.683Z,25.20
2019-06-26T17:26:50.154Z,25.30
2019-06-26T17:29:20.576Z,25.70
2019-06-26T17:31:51.008Z,26.00
2019-06-26T17:34:29.945Z,26.10
2019-06-26T17:37:00.502Z,26.30
2019-06-26T17:39:30.898Z,26.70
2019-06-26T17:42:02.406Z,27.10
2019-06-26T17:44:33.098Z,27.30
2019-06-26T17:47:06.376Z,27.50
2019-06-26T17:49:37.474Z,27.80
2019-06-26T17:52:07.974Z,28.10
2019-06-26T17:54:38.598Z,28.40
2019-06-26T17:57:09.108Z,28.60
2019-06-26T17:59:39.533Z,29.10
2019-06-26T18:02:10.515Z,29.60
2019-06-26T18:04:40.998Z,30.00
2019-06-26T18:07:26.106Z,30.40
2019-06-26T18:09:56.556Z,30.90
2019-06-26T18:12:27.356Z,31.70
2019-06-26T18:14:57.881Z,32.70
2019-06-26T18:17:28.336Z,33.70
2019-06-26T18:19:58.741Z,34.80
2019-06-26T18:22:29.164Z,35.80
2019-06-26T18:24:59.771Z,36.90
2019-06-26T18:27:30.170Z,37.90
2019-06-26T18:30:02.095Z,38.70
2019-06-26T18:32:33.322Z,39.60
2019-06-26T18:35:04.386Z,40.80
2019-06-26T18:37:35.113Z,41.70
2019-06-26T18:40:06.668Z,42.60
2019-06-26T18:42:37.403Z,43.40
2019-06-26T18:45:09.411Z,44.10
2019-06-26T18:47:40.094Z,44.80
2019-06-26T18:50:10.946Z,45.50
2019-06-26T18:52:43.006Z,46.20
2019-06-26T18:55:13.793Z,46.80
2019-06-26T18:57:44.464Z,47.50
2019-06-26T19:00:18.488Z,48.10
2019-06-26T19:02:49.260Z,48.60
2019-06-26T19:05:22.407Z,49.20
2019-06-26T19:07:53.087Z,49.70
2019-06-26T19:10:23.812Z,50.10
2019-06-26T19:12:54.585Z,50.70
2019-06-26T19:15:25.244Z,51.30
2019-06-26T19:17:55.932Z,51.80
2019-06-26T19:20:26.852Z,52.40
2019-06-26T19:22:57.621Z,52.80
2019-06-26T19:25:28.302Z,53.20
2019-06-26T19:28:23.014Z,53.50
2019-06-26T19:30:52.255Z,53.90
2019-06-26T19:33:23.014Z,54.10
2019-06-26T19:35:53.488Z,54.50
2019-06-26T19:38:23.906Z,55.00
2019-06-26T19:40:54.949Z,55.40
2019-06-26T19:43:25.598Z,55.80
2019-06-26T19:45:56.274Z,56.20
2019-06-26T19:48:26.919Z,56.60
2019-06-26T19:50:57.640Z,56.90
2019-06-26T19:53:28.347Z,57.30
2019-06-26T19:55:58.988Z,57.70
2019-06-26T19:58:29.743Z,58.00
2019-06-26T20:01:00.399Z,58.30
2019-06-26T20:03:31.082Z,58.80
2019-06-26T20:06:01.754Z,59.10
2019-06-26T20:08:32.167Z,59.40
2019-06-26T20:11:02.555Z,59.60
2019-06-26T20:13:33.515Z,59.90
2019-06-26T20:16:05.237Z,60.10
2019-06-26T20:18:36.235Z,60.50
2019-06-26T20:21:06.713Z,60.80
2019-06-26T20:23:37.500Z,61.20
2019-06-26T20:26:08.146Z,61.50
2019-06-26T20:28:38.941Z,61.90
2019-06-26T20:31:12.980Z,62.00
2019-06-26T20:33:43.634Z,62.30
2019-06-26T20:36:14.345Z,62.70
2019-06-26T20:38:44.800Z,63.00
2019-06-26T20:41:15.559Z,63.40
2019-06-26T20:43:45.970Z,63.70
2019-06-26T20:46:16.396Z,64.00
2019-06-26T20:48:46.837Z,64.10
2019-06-26T20:51:20.676Z,64.40
2019-06-26T20:53:49.486Z,64.60
2019-06-26T20:56:25.647Z,64.90
2019-06-26T20:58:54.452Z,65.20
2019-06-26T21:01:24.909Z,65.50
2019-06-26T21:03:55.585Z,65.90
2019-06-26T21:06:25.993Z,66.10
2019-06-26T21:08:57.745Z,66.50
2019-06-26T21:11:28.138Z,66.70
2019-06-26T21:13:58.685Z,66.80
2019-06-26T21:16:29.149Z,67.10
2019-06-26T21:18:59.643Z,67.30
2019-06-26T21:21:30.063Z,67.60
2019-06-26T21:24:00.552Z,67.80
2019-06-26T21:26:30.958Z,67.90
2019-06-26T21:29:01.438Z,68.10
2019-06-26T21:31:31.850Z,68.30
2019-06-26T21:34:02.310Z,68.60
2019-06-26T21:36:32.709Z,68.70
2019-06-26T21:39:05.788Z,68.90
2019-06-26T21:41:35.491Z,69.20
2019-06-26T21:44:06.042Z,69.20
2019-06-26T21:46:36.428Z,69.30
2019-06-26T21:49:06.945Z,69.50
2019-06-26T21:51:37.342Z,69.60
2019-06-26T21:54:07.737Z,69.80
2019-06-26T21:56:38.233Z,69.90
2019-06-26T21:59:08.666Z,70.20
2019-06-26T22:01:39.074Z,70.30
2019-06-26T22:04:09.694Z,70.60
2019-06-26T22:06:40.463Z,70.60
2019-06-26T22:09:11.936Z,70.70
2019-06-26T22:11:42.377Z,70.90
2019-06-26T22:14:12.780Z,71.10
2019-06-26T22:16:43.218Z,71.20
2019-06-26T22:19:13.625Z,71.50
2019-06-26T22:21:44.047Z,71.70
2019-06-26T22:24:14.408Z,71.90
2019-06-26T22:26:44.820Z,72.00
2019-06-26T22:29:15.185Z,72.10
2019-06-26T22:31:45.734Z,72.10
2019-06-26T22:34:16.211Z,72.30
2019-06-26T22:36:51.890Z,72.60
2019-06-26T22:39:18.764Z,72.70
2019-06-26T22:41:49.189Z,72.80
2019-06-26T22:44:19.602Z,73.10
2019-06-26T22:46:50.014Z,73.00
2019-06-26T22:49:20.440Z,73.10
2019-06-26T22:51:50.866Z,73.10
2019-06-26T22:54:21.259Z,73.20
2019-06-26T22:56:51.644Z,73.20
2019-06-26T22:59:22.071Z,73.20
2019-06-26T23:01:53.338Z,73.20
2019-06-26T23:04:23.816Z,73.10
2019-06-26T23:06:54.238Z,73.10
2019-06-26T23:09:24.637Z,73.10
2019-06-26T23:11:55.048Z,72.90
2019-06-26T23:14:25.453Z,72.90
2019-06-26T23:16:55.908Z,72.70
2019-06-26T23:19:26.331Z,72.40
2019-06-26T23:21:56.738Z,72.40
2019-06-26T23:24:27.189Z,72.30
2019-06-26T23:26:57.571Z,72.40
2019-06-26T23:29:27.957Z,72.40
2019-06-26T23:31:58.365Z,72.30
2019-06-26T23:34:28.788Z,72.20
2019-06-26T23:36:59.188Z,72.00
2019-06-26T23:39:29.613Z,71.90
2019-06-26T23:42:00.027Z,71.90
2019-06-26T23:44:30.457Z,71.80
2019-06-26T23:47:00.866Z,71.70
2019-06-26T23:49:31.274Z,71.90
2019-06-26T23:52:01.759Z,72.10
2019-06-26T23:54:32.157Z,71.90
2019-06-26T23:57:02.625Z,71.80
2019-06-26T23:59:33.011Z,71.90
